GEJCK EGKK-LCPH
Flight info
| Callsign | GEJCK |
|---|---|
| Flight time | N/A |
| Altitude | 23000 |
| Route | MIMFO Y312 DVR L9 KONAN/N0458F330 UL607 REMBA M624 DIK N852 SUTAL DCT GTQ DCT BEGAR/N0455F350 DCT TRA DCT SUXAN DCT ROKIB DCT ROTAR DCT VAKSU DCT KOFER DCT PINDO DCT NEVRA DCT AKINA DCT LINRO UL52 VAXOS UM978 TOSKA DCT TOBAL |
| Aircraft | A320/M-SDE3FGHIRWY/LB1 |
Departure
| Time | 2026-04-16 15:20 |
|---|---|
| Airport | London Gatwick Airport (EGKK) |
Arrival
| Time | N/A |
|---|---|
| Airport | Paphos International Airport (LCPH) |
| Time | Latitude | Longitude | Altitude | Speed | Heading |
|---|---|---|---|---|---|
| 2026-04-16 14:54 | 51.15494 | -0.16906 | 210 ft | 0 kts | 349° |
| 2026-04-16 15:12 | 51.15479 | -0.16901 | 215 ft | 2 kts | 349° |
| 2026-04-16 15:12 | 51.15462 | -0.16897 | 214 ft | 2 kts | 334° |
| 2026-04-16 15:12 | 51.15451 | -0.16878 | 217 ft | 2 kts | 262° |
| 2026-04-16 15:12 | 51.15451 | -0.16876 | 216 ft | 0 kts | 261° |
| 2026-04-16 15:14 | 51.15443 | -0.16874 | 213 ft | 1 kts | 172° |
| 2026-04-16 15:14 | 51.15445 | -0.16854 | 205 ft | 0 kts | 83° |
| 2026-04-16 15:16 | 51.15452 | -0.16803 | 211 ft | 14 kts | 80° |
| 2026-04-16 15:17 | 51.15362 | -0.16704 | 205 ft | 19 kts | 167° |
| 2026-04-16 15:17 | 51.15270 | -0.16663 | 213 ft | 0 kts | 167° |
| 2026-04-16 15:19 | 51.15259 | -0.16659 | 205 ft | 7 kts | 167° |
| 2026-04-16 15:19 | 51.15169 | -0.16642 | 210 ft | 18 kts | 191° |
| 2026-04-16 15:19 | 51.15118 | -0.16850 | 207 ft | 27 kts | 255° |
| 2026-04-16 15:19 | 51.15032 | -0.17458 | 210 ft | 87 kts | 259° |
| 2026-04-16 15:20 | 51.14849 | -0.18664 | 206 ft | 138 kts | 259° |
| 2026-04-16 15:20 | 51.14627 | -0.20348 | 333 ft | 170 kts | 254° |
| 2026-04-16 15:20 | 51.14375 | -0.22324 | 633 ft | 194 kts | 254° |
| 2026-04-16 15:20 | 51.14061 | -0.24537 | 971 ft | 217 kts | 255° |
| 2026-04-16 15:21 | 51.13726 | -0.26948 | 1433 ft | 221 kts | 257° |
| 2026-04-16 15:21 | 51.13464 | -0.29360 | 1852 ft | 223 kts | 257° |
| 2026-04-16 15:21 | 51.13199 | -0.31800 | 2289 ft | 225 kts | 258° |
| 2026-04-16 15:21 | 51.12913 | -0.34246 | 2732 ft | 225 kts | 257° |
| 2026-04-16 15:22 | 51.12619 | -0.36688 | 3163 ft | 224 kts | 257° |
| 2026-04-16 15:22 | 51.12328 | -0.39132 | 3599 ft | 226 kts | 257° |
| 2026-04-16 15:22 | 51.12032 | -0.41571 | 4029 ft | 229 kts | 257° |
| 2026-04-16 15:22 | 51.11732 | -0.44065 | 4180 ft | 229 kts | 257° |
| 2026-04-16 15:23 | 51.11436 | -0.46549 | 4190 ft | 228 kts | 257° |
| 2026-04-16 15:23 | 51.11133 | -0.49036 | 4192 ft | 230 kts | 257° |
| 2026-04-16 15:23 | 51.10822 | -0.51535 | 4190 ft | 229 kts | 257° |
| 2026-04-16 15:23 | 51.10513 | -0.54041 | 4449 ft | 233 kts | 257° |
| 2026-04-16 15:24 | 51.10193 | -0.56574 | 5293 ft | 233 kts | 257° |
| 2026-04-16 15:24 | 51.09876 | -0.59124 | 6049 ft | 237 kts | 257° |
| 2026-04-16 15:24 | 51.09556 | -0.61694 | 6850 ft | 237 kts | 256° |
| 2026-04-16 15:24 | 51.08899 | -0.64108 | 7509 ft | 240 kts | 232° |
| 2026-04-16 15:25 | 51.07600 | -0.65782 | 8223 ft | 246 kts | 206° |
| 2026-04-16 15:25 | 51.05905 | -0.66282 | 8925 ft | 256 kts | 178° |
| 2026-04-16 15:25 | 51.04197 | -0.65335 | 9592 ft | 270 kts | 148° |
| 2026-04-16 15:25 | 51.02983 | -0.62995 | 10237 ft | 285 kts | 114° |
| 2026-04-16 15:26 | 51.02729 | -0.59853 | 10833 ft | 295 kts | 80° |
| 2026-04-16 15:26 | 51.03423 | -0.56812 | 11436 ft | 299 kts | 64° |
| 2026-04-16 15:26 | 51.04386 | -0.53867 | 12061 ft | 302 kts | 60° |
| 2026-04-16 15:26 | 51.05430 | -0.50940 | 12695 ft | 306 kts | 59° |
| 2026-04-16 15:27 | 51.06500 | -0.47998 | 13316 ft | 309 kts | 60° |
| 2026-04-16 15:27 | 51.07571 | -0.45014 | 13940 ft | 312 kts | 60° |
| 2026-04-16 15:27 | 51.08634 | -0.41988 | 14482 ft | 316 kts | 61° |
| 2026-04-16 15:27 | 51.09697 | -0.38906 | 15031 ft | 319 kts | 61° |
| 2026-04-16 15:28 | 51.10758 | -0.35780 | 15581 ft | 322 kts | 61° |
| 2026-04-16 15:28 | 51.11804 | -0.32667 | 16334 ft | 315 kts | 61° |
| 2026-04-16 15:28 | 51.12833 | -0.29592 | 16984 ft | 314 kts | 61° |
| 2026-04-16 15:28 | 51.13875 | -0.26514 | 17537 ft | 316 kts | 57° |
| 2026-04-16 15:29 | 51.14758 | -0.24678 | 17874 ft | 315 kts | 39° |
| 2026-04-16 15:29 | 51.16582 | -0.22841 | 18361 ft | 309 kts | 13° |
| 2026-04-16 15:29 | 51.18643 | -0.21889 | 18805 ft | 311 kts | 14° |
| 2026-04-16 15:29 | 51.21209 | -0.19710 | 19279 ft | 329 kts | 41° |
| 2026-04-16 15:30 | 51.22501 | -0.16616 | 19401 ft | 347 kts | 72° |
| 2026-04-16 15:30 | 51.22861 | -0.14046 | 19497 ft | 356 kts | 85° |
| 2026-04-16 15:30 | 51.22967 | -0.10028 | 19614 ft | 369 kts | 91° |
| 2026-04-16 15:30 | 51.23001 | -0.05849 | 19743 ft | 384 kts | 91° |
| 2026-04-16 15:31 | 51.23032 | -0.01566 | 19861 ft | 398 kts | 91° |
| 2026-04-16 15:31 | 51.23203 | 0.02919 | 19840 ft | 411 kts | 84° |
| 2026-04-16 15:31 | 51.23642 | 0.07501 | 19940 ft | 424 kts | 79° |
| 2026-04-16 15:31 | 51.24266 | 0.12167 | 20025 ft | 436 kts | 77° |
| 2026-04-16 15:32 | 51.24945 | 0.16937 | 20124 ft | 446 kts | 80° |
| 2026-04-16 15:32 | 51.25276 | 0.21914 | 20220 ft | 455 kts | 90° |
| 2026-04-16 15:32 | 51.25062 | 0.26990 | 20329 ft | 462 kts | 98° |
| 2026-04-16 15:32 | 51.24684 | 0.32109 | 20572 ft | 466 kts | 98° |
| 2026-04-16 15:33 | 51.24268 | 0.37250 | 20888 ft | 469 kts | 99° |
| 2026-04-16 15:33 | 51.23834 | 0.42432 | 21218 ft | 472 kts | 99° |
| 2026-04-16 15:33 | 51.23400 | 0.47633 | 21536 ft | 474 kts | 99° |
| 2026-04-16 15:33 | 51.22975 | 0.52879 | 21869 ft | 476 kts | 98° |
| 2026-04-16 15:34 | 51.22570 | 0.58064 | 22206 ft | 479 kts | 98° |
| 2026-04-16 15:34 | 51.22167 | 0.63360 | 22553 ft | 481 kts | 98° |
| 2026-04-16 15:34 | 51.21763 | 0.68688 | 22879 ft | 484 kts | 98° |
| 2026-04-16 15:34 | 51.21351 | 0.74030 | 23024 ft | 488 kts | 98° |
| 2026-04-16 15:35 | 51.20924 | 0.79429 | 23201 ft | 494 kts | 98° |
| 2026-04-16 15:35 | 51.20484 | 0.84892 | 23373 ft | 499 kts | 98° |
| 2026-04-16 15:35 | 51.20034 | 0.90422 | 23559 ft | 504 kts | 98° |
| 2026-04-16 15:35 | 51.19578 | 0.95989 | 23768 ft | 508 kts | 98° |
| 2026-04-16 15:36 | 51.19121 | 1.01587 | 23889 ft | 512 kts | 98° |
| 2026-04-16 15:36 | 51.18659 | 1.07232 | 24049 ft | 514 kts | 98° |
| 2026-04-16 15:36 | 51.18199 | 1.12821 | 24264 ft | 515 kts | 98° |
| 2026-04-16 15:36 | 51.17730 | 1.18476 | 24514 ft | 515 kts | 98° |
| 2026-04-16 15:37 | 51.17258 | 1.24139 | 24763 ft | 515 kts | 98° |
| 2026-04-16 15:37 | 51.16782 | 1.29801 | 25031 ft | 515 kts | 98° |
| 2026-04-16 15:37 | 51.16303 | 1.35459 | 25272 ft | 516 kts | 98° |
| 2026-04-16 15:37 | 51.15887 | 1.41126 | 25521 ft | 516 kts | 96° |
| 2026-04-16 15:38 | 51.15572 | 1.46830 | 25768 ft | 517 kts | 95° |
| 2026-04-16 15:38 | 51.15333 | 1.52543 | 26022 ft | 517 kts | 94° |
| 2026-04-16 15:38 | 51.15124 | 1.58255 | 26280 ft | 517 kts | 94° |
| 2026-04-16 15:38 | 51.14906 | 1.63989 | 26546 ft | 518 kts | 94° |
| 2026-04-16 15:39 | 51.14663 | 1.69702 | 26812 ft | 518 kts | 95° |
| 2026-04-16 15:39 | 51.14390 | 1.75428 | 27082 ft | 518 kts | 95° |
| 2026-04-16 15:39 | 51.14092 | 1.81154 | 27340 ft | 518 kts | 95° |
| 2026-04-16 15:39 | 51.13784 | 1.86867 | 27622 ft | 518 kts | 95° |
| 2026-04-16 15:40 | 51.13472 | 1.92590 | 27894 ft | 518 kts | 95° |
| 2026-04-16 15:40 | 51.13163 | 1.98313 | 28183 ft | 519 kts | 95° |
| 2026-04-16 15:40 | 51.12858 | 2.04035 | 28454 ft | 519 kts | 95° |
| 2026-04-16 15:40 | 51.12560 | 2.09690 | 28738 ft | 519 kts | 95° |
| 2026-04-16 15:41 | 51.12258 | 2.15414 | 29014 ft | 519 kts | 95° |
| 2026-04-16 15:41 | 51.11953 | 2.21139 | 29297 ft | 519 kts | 95° |
| 2026-04-16 15:41 | 51.11644 | 2.26861 | 29566 ft | 520 kts | 95° |
| 2026-04-16 15:41 | 51.11331 | 2.32590 | 29839 ft | 520 kts | 95° |
| 2026-04-16 15:42 | 51.11013 | 2.38323 | 30112 ft | 520 kts | 95° |
| 2026-04-16 15:42 | 51.10691 | 2.44060 | 30370 ft | 520 kts | 95° |
| 2026-04-16 15:42 | 51.10367 | 2.49784 | 30611 ft | 520 kts | 95° |
| 2026-04-16 15:42 | 51.10038 | 2.55517 | 30847 ft | 520 kts | 95° |
| 2026-04-16 15:43 | 51.09706 | 2.61252 | 31087 ft | 520 kts | 95° |
| 2026-04-16 15:43 | 51.09150 | 2.66935 | 31214 ft | 520 kts | 105° |
| 2026-04-16 15:43 | 51.08178 | 2.72465 | 31236 ft | 519 kts | 107° |
| 2026-04-16 15:44 | 51.06171 | 2.83492 | 31225 ft | 519 kts | 107° |
| 2026-04-16 15:44 | 51.04150 | 2.94508 | 31228 ft | 520 kts | 107° |
| 2026-04-16 15:45 | 51.02129 | 3.05531 | 31221 ft | 520 kts | 107° |
| 2026-04-16 15:45 | 51.00106 | 3.16548 | 31230 ft | 520 kts | 107° |
| 2026-04-16 15:46 | 50.98072 | 3.27481 | 31224 ft | 520 kts | 107° |
| 2026-04-16 15:46 | 50.96020 | 3.38470 | 31228 ft | 520 kts | 107° |
| 2026-04-16 15:47 | 50.93949 | 3.49486 | 31228 ft | 520 kts | 107° |
| 2026-04-16 15:47 | 50.91857 | 3.60536 | 31220 ft | 520 kts | 107° |
| 2026-04-16 15:48 | 50.89785 | 3.71444 | 31221 ft | 520 kts | 107° |
| 2026-04-16 15:48 | 50.87672 | 3.82413 | 31222 ft | 521 kts | 107° |
| 2026-04-16 15:49 | 50.85539 | 3.93364 | 31219 ft | 521 kts | 107° |
| 2026-04-16 15:49 | 50.83398 | 4.04330 | 31219 ft | 521 kts | 108° |
| 2026-04-16 15:50 | 50.81251 | 4.15270 | 31222 ft | 521 kts | 108° |
| 2026-04-16 15:50 | 50.79090 | 4.26199 | 31220 ft | 520 kts | 108° |
| 2026-04-16 15:51 | 50.76926 | 4.37096 | 31219 ft | 519 kts | 108° |
| 2026-04-16 15:51 | 50.74749 | 4.47959 | 31219 ft | 519 kts | 108° |
| 2026-04-16 15:52 | 50.72556 | 4.58826 | 31221 ft | 519 kts | 108° |
| 2026-04-16 15:52 | 50.70402 | 4.69692 | 31219 ft | 519 kts | 107° |
| 2026-04-16 15:53 | 50.68314 | 4.80584 | 31220 ft | 519 kts | 107° |
| 2026-04-16 15:53 | 50.65639 | 4.91012 | 31221 ft | 516 kts | 124° |
| 2026-04-16 15:53 | 50.63510 | 4.95532 | 31220 ft | 512 kts | 135° |
| 2026-04-16 15:54 | 50.61004 | 4.99501 | 31222 ft | 511 kts | 139° |
| 2026-04-16 15:54 | 50.55923 | 5.07339 | 31219 ft | 511 kts | 139° |
| 2026-04-16 15:55 | 50.50851 | 5.15189 | 31227 ft | 512 kts | 138° |
| 2026-04-16 15:55 | 50.45773 | 5.23030 | 31222 ft | 512 kts | 138° |
| 2026-04-16 15:56 | 50.40683 | 5.30839 | 31220 ft | 512 kts | 139° |
| 2026-04-16 15:56 | 50.35580 | 5.38636 | 31214 ft | 512 kts | 139° |
| 2026-04-16 15:57 | 50.30470 | 5.46412 | 31214 ft | 512 kts | 139° |
| 2026-04-16 15:57 | 50.25392 | 5.54126 | 31222 ft | 511 kts | 138° |
| 2026-04-16 15:58 | 50.20282 | 5.61866 | 31208 ft | 511 kts | 138° |
| 2026-04-16 15:58 | 50.15173 | 5.69584 | 31215 ft | 512 kts | 138° |
| 2026-04-16 15:59 | 50.07485 | 5.81130 | 31205 ft | 511 kts | 139° |
| 2026-04-16 15:59 | 50.02356 | 5.88805 | 31204 ft | 511 kts | 138° |
| 2026-04-16 16:00 | 49.97233 | 5.96458 | 31214 ft | 511 kts | 138° |
| 2026-04-16 16:00 | 49.92110 | 6.04101 | 31212 ft | 511 kts | 138° |
| 2026-04-16 16:01 | 49.86875 | 6.11544 | 31210 ft | 508 kts | 147° |
| 2026-04-16 16:01 | 49.80722 | 6.16656 | 31215 ft | 501 kts | 160° |
| 2026-04-16 16:02 | 49.74333 | 6.20975 | 31219 ft | 501 kts | 160° |
| 2026-04-16 16:02 | 49.67990 | 6.25276 | 31220 ft | 501 kts | 160° |
| 2026-04-16 16:03 | 49.61594 | 6.29589 | 31221 ft | 501 kts | 160° |
| 2026-04-16 16:03 | 49.55174 | 6.33765 | 31213 ft | 500 kts | 161° |
| 2026-04-16 16:04 | 49.48738 | 6.37856 | 31221 ft | 500 kts | 161° |
| 2026-04-16 16:04 | 49.42323 | 6.42009 | 31218 ft | 501 kts | 160° |
| 2026-04-16 16:05 | 49.35952 | 6.46376 | 31223 ft | 501 kts | 159° |
| 2026-04-16 16:05 | 49.29645 | 6.50751 | 31226 ft | 500 kts | 159° |
| 2026-04-16 16:06 | 49.23286 | 6.55086 | 31232 ft | 500 kts | 159° |
| 2026-04-16 16:06 | 49.16918 | 6.59364 | 31233 ft | 500 kts | 159° |
| 2026-04-16 16:07 | 49.10546 | 6.63636 | 31214 ft | 500 kts | 159° |
| 2026-04-16 16:07 | 49.04173 | 6.67909 | 31234 ft | 500 kts | 159° |
| 2026-04-16 16:08 | 48.97814 | 6.72194 | 31232 ft | 500 kts | 158° |
| 2026-04-16 16:08 | 48.91616 | 6.77032 | 31234 ft | 502 kts | 153° |
| 2026-04-16 16:09 | 48.85581 | 6.82247 | 31240 ft | 501 kts | 152° |
| 2026-04-16 16:09 | 48.79503 | 6.87408 | 31237 ft | 500 kts | 153° |
| 2026-04-16 16:10 | 48.73377 | 6.92394 | 31237 ft | 500 kts | 154° |
| 2026-04-16 16:10 | 48.67229 | 6.97327 | 31248 ft | 500 kts | 154° |
| 2026-04-16 16:11 | 48.61085 | 7.02285 | 31238 ft | 500 kts | 154° |
| 2026-04-16 16:11 | 48.54947 | 7.07259 | 31233 ft | 500 kts | 154° |
| 2026-04-16 16:12 | 48.48845 | 7.12193 | 31232 ft | 500 kts | 154° |
| 2026-04-16 16:12 | 48.42705 | 7.17139 | 31207 ft | 500 kts | 154° |
| 2026-04-16 16:13 | 48.36572 | 7.22062 | 31225 ft | 499 kts | 154° |
| 2026-04-16 16:13 | 48.30448 | 7.26962 | 31222 ft | 498 kts | 154° |
| 2026-04-16 16:14 | 48.24323 | 7.31846 | 31220 ft | 498 kts | 154° |
| 2026-04-16 16:14 | 48.18204 | 7.36711 | 31215 ft | 498 kts | 154° |
| 2026-04-16 16:15 | 48.12085 | 7.41567 | 31220 ft | 498 kts | 154° |
| 2026-04-16 16:15 | 48.05996 | 7.46395 | 31220 ft | 498 kts | 154° |
| 2026-04-16 16:16 | 47.99871 | 7.51228 | 31220 ft | 498 kts | 154° |
| 2026-04-16 16:16 | 47.93948 | 7.56573 | 31212 ft | 500 kts | 140° |
| 2026-04-16 16:17 | 47.91485 | 7.60230 | 31216 ft | 500 kts | 129° |
| 2026-04-16 16:17 | 47.89518 | 7.64500 | 31228 ft | 500 kts | 117° |
| 2026-04-16 16:17 | 47.86889 | 7.74055 | 31221 ft | 499 kts | 109° |
| 2026-04-16 16:18 | 47.84430 | 7.83727 | 31228 ft | 499 kts | 109° |
| 2026-04-16 16:18 | 47.82375 | 7.91742 | 31228 ft | 499 kts | 109° |
| 2026-04-16 16:19 | 47.79897 | 8.01391 | 31238 ft | 499 kts | 109° |
| 2026-04-16 16:19 | 47.77419 | 8.11044 | 31238 ft | 499 kts | 109° |
| 2026-04-16 16:20 | 47.74934 | 8.20682 | 31241 ft | 499 kts | 109° |
| 2026-04-16 16:20 | 47.72442 | 8.30306 | 31240 ft | 499 kts | 109° |
| 2026-04-16 16:21 | 47.69933 | 8.39917 | 31232 ft | 499 kts | 111° |
| 2026-04-16 16:21 | 47.66324 | 8.48675 | 31243 ft | 500 kts | 128° |
| 2026-04-16 16:22 | 47.62001 | 8.56749 | 31243 ft | 500 kts | 128° |
| 2026-04-16 16:22 | 47.57702 | 8.64761 | 31242 ft | 500 kts | 128° |
| 2026-04-16 16:23 | 47.53378 | 8.72817 | 31245 ft | 500 kts | 128° |
| 2026-04-16 16:23 | 47.49054 | 8.80872 | 31250 ft | 499 kts | 128° |
| 2026-04-16 16:24 | 47.44732 | 8.88888 | 31234 ft | 498 kts | 128° |
| 2026-04-16 16:24 | 47.40410 | 8.96858 | 31237 ft | 497 kts | 128° |
| 2026-04-16 16:25 | 47.36086 | 9.04825 | 31237 ft | 497 kts | 128° |
| 2026-04-16 16:25 | 47.31789 | 9.12740 | 31235 ft | 497 kts | 128° |
| 2026-04-16 16:26 | 47.27465 | 9.20665 | 31232 ft | 496 kts | 129° |
| 2026-04-16 16:26 | 47.23133 | 9.28557 | 31227 ft | 495 kts | 129° |
| 2026-04-16 16:27 | 47.18803 | 9.36427 | 31228 ft | 494 kts | 129° |
| 2026-04-16 16:27 | 47.14468 | 9.44290 | 31225 ft | 494 kts | 129° |
| 2026-04-16 16:28 | 47.10146 | 9.52119 | 31228 ft | 493 kts | 129° |
| 2026-04-16 16:28 | 47.05834 | 9.59916 | 31230 ft | 491 kts | 129° |
| 2026-04-16 16:29 | 47.01516 | 9.67688 | 31234 ft | 491 kts | 129° |
| 2026-04-16 16:29 | 46.97222 | 9.75396 | 31242 ft | 492 kts | 129° |
| 2026-04-16 16:30 | 46.92899 | 9.83131 | 31231 ft | 490 kts | 129° |
| 2026-04-16 16:30 | 46.88570 | 9.90837 | 31231 ft | 490 kts | 129° |
| 2026-04-16 16:31 | 46.84246 | 9.98543 | 31233 ft | 490 kts | 129° |
| 2026-04-16 16:31 | 46.79928 | 10.06222 | 31224 ft | 489 kts | 129° |
| 2026-04-16 16:32 | 46.75600 | 10.13874 | 31214 ft | 489 kts | 129° |
| 2026-04-16 16:32 | 46.71267 | 10.21514 | 31216 ft | 488 kts | 129° |
| 2026-04-16 16:33 | 46.66948 | 10.29105 | 31195 ft | 486 kts | 129° |
| 2026-04-16 16:33 | 46.62640 | 10.36675 | 31191 ft | 486 kts | 129° |
| 2026-04-16 16:34 | 46.58323 | 10.44238 | 31182 ft | 486 kts | 129° |
| 2026-04-16 16:34 | 46.54060 | 10.51850 | 31173 ft | 485 kts | 127° |
| 2026-04-16 16:35 | 46.50069 | 10.59747 | 31160 ft | 484 kts | 124° |
| 2026-04-16 16:35 | 46.46177 | 10.67713 | 31141 ft | 483 kts | 124° |
| 2026-04-16 16:36 | 46.42220 | 10.75595 | 31148 ft | 483 kts | 125° |
| 2026-04-16 16:36 | 46.38224 | 10.83361 | 31201 ft | 483 kts | 126° |
| 2026-04-16 16:37 | 46.34199 | 10.91152 | 31225 ft | 483 kts | 126° |
| 2026-04-16 16:37 | 46.30187 | 10.98936 | 31246 ft | 483 kts | 126° |
| 2026-04-16 16:38 | 46.26169 | 11.06729 | 31250 ft | 483 kts | 126° |
| 2026-04-16 16:38 | 46.22155 | 11.14511 | 31246 ft | 483 kts | 126° |
| 2026-04-16 16:39 | 46.18132 | 11.22271 | 31218 ft | 483 kts | 127° |
| 2026-04-16 16:39 | 46.14097 | 11.30028 | 31127 ft | 483 kts | 126° |
| 2026-04-16 16:40 | 46.10057 | 11.37782 | 31135 ft | 484 kts | 126° |
| 2026-04-16 16:40 | 46.06036 | 11.45485 | 31140 ft | 484 kts | 127° |
| 2026-04-16 16:41 | 46.01981 | 11.53226 | 31145 ft | 484 kts | 126° |
| 2026-04-16 16:41 | 45.97918 | 11.60948 | 31145 ft | 484 kts | 127° |
| 2026-04-16 16:42 | 45.93859 | 11.68632 | 31138 ft | 483 kts | 127° |
| 2026-04-16 16:42 | 45.89851 | 11.76386 | 31139 ft | 483 kts | 125° |
| 2026-04-16 16:43 | 45.85940 | 11.84207 | 31138 ft | 483 kts | 125° |
| 2026-04-16 16:43 | 45.82023 | 11.92023 | 31127 ft | 482 kts | 125° |
| 2026-04-16 16:44 | 45.78082 | 11.99775 | 31133 ft | 481 kts | 125° |
| 2026-04-16 16:44 | 45.74120 | 12.07506 | 31119 ft | 481 kts | 125° |
| 2026-04-16 16:45 | 45.70182 | 12.15178 | 31110 ft | 481 kts | 125° |
| 2026-04-16 16:45 | 45.66225 | 12.22897 | 31113 ft | 481 kts | 126° |
| 2026-04-16 16:46 | 45.62270 | 12.30589 | 31114 ft | 480 kts | 126° |
| 2026-04-16 16:46 | 45.58304 | 12.38265 | 31110 ft | 480 kts | 126° |
| 2026-04-16 16:47 | 45.54334 | 12.45927 | 31114 ft | 480 kts | 126° |
| 2026-04-16 16:47 | 45.50363 | 12.53581 | 31108 ft | 480 kts | 126° |
| 2026-04-16 16:48 | 45.46381 | 12.61234 | 31108 ft | 480 kts | 127° |
| 2026-04-16 16:48 | 45.42405 | 12.68852 | 31114 ft | 479 kts | 127° |
| 2026-04-16 16:49 | 45.38421 | 12.76458 | 31115 ft | 479 kts | 127° |
| 2026-04-16 16:49 | 45.34438 | 12.84057 | 31119 ft | 479 kts | 127° |
| 2026-04-16 16:50 | 45.30456 | 12.91639 | 31115 ft | 478 kts | 127° |
| 2026-04-16 16:50 | 45.26495 | 12.99155 | 31120 ft | 478 kts | 127° |
| 2026-04-16 16:51 | 45.22487 | 13.06691 | 31120 ft | 478 kts | 127° |
| 2026-04-16 16:51 | 45.18465 | 13.14195 | 31118 ft | 477 kts | 127° |
| 2026-04-16 16:52 | 45.14447 | 13.21676 | 31120 ft | 476 kts | 127° |
| 2026-04-16 16:52 | 45.10432 | 13.29148 | 31123 ft | 476 kts | 127° |
| 2026-04-16 16:53 | 45.06421 | 13.36596 | 31122 ft | 476 kts | 127° |
| 2026-04-16 16:53 | 45.02422 | 13.43999 | 31123 ft | 476 kts | 127° |
| 2026-04-16 16:54 | 44.98396 | 13.51429 | 31122 ft | 475 kts | 127° |
| 2026-04-16 16:54 | 44.94373 | 13.58827 | 31115 ft | 474 kts | 127° |
| 2026-04-16 16:55 | 44.90344 | 13.66201 | 31113 ft | 474 kts | 127° |
| 2026-04-16 16:55 | 44.86321 | 13.73570 | 31114 ft | 474 kts | 127° |
| 2026-04-16 16:56 | 44.82297 | 13.80940 | 31117 ft | 474 kts | 127° |
| 2026-04-16 16:56 | 44.78270 | 13.88282 | 31111 ft | 473 kts | 127° |
| 2026-04-16 16:57 | 44.72237 | 13.99219 | 31111 ft | 473 kts | 127° |
| 2026-04-16 16:58 | 44.68190 | 14.06537 | 31104 ft | 473 kts | 127° |
| 2026-04-16 16:58 | 44.64152 | 14.13848 | 31104 ft | 472 kts | 127° |
| 2026-04-16 16:59 | 44.60119 | 14.21122 | 31096 ft | 472 kts | 127° |
| 2026-04-16 16:59 | 44.56104 | 14.28329 | 31099 ft | 472 kts | 127° |
| 2026-04-16 17:00 | 44.52060 | 14.35568 | 31093 ft | 472 kts | 127° |
| 2026-04-16 17:00 | 44.48010 | 14.42811 | 31099 ft | 472 kts | 127° |
| 2026-04-16 17:01 | 44.43959 | 14.50030 | 31092 ft | 470 kts | 126° |
| 2026-04-16 17:01 | 44.39914 | 14.57224 | 31085 ft | 470 kts | 127° |
| 2026-04-16 17:02 | 44.35862 | 14.64409 | 31088 ft | 470 kts | 127° |
| 2026-04-16 17:02 | 44.31810 | 14.71573 | 31085 ft | 470 kts | 127° |
| 2026-04-16 17:03 | 44.27782 | 14.78692 | 31079 ft | 470 kts | 127° |
| 2026-04-16 17:03 | 44.23727 | 14.85840 | 31083 ft | 470 kts | 127° |
| 2026-04-16 17:04 | 44.19654 | 14.92984 | 31079 ft | 469 kts | 127° |
| 2026-04-16 17:04 | 44.15587 | 15.00109 | 31094 ft | 469 kts | 127° |
| 2026-04-16 17:05 | 44.11554 | 15.07153 | 31082 ft | 467 kts | 126° |
| 2026-04-16 17:05 | 44.07501 | 15.14219 | 31081 ft | 467 kts | 126° |
| 2026-04-16 17:06 | 44.03448 | 15.21278 | 31083 ft | 467 kts | 127° |
| 2026-04-16 17:06 | 43.99385 | 15.28326 | 31084 ft | 467 kts | 127° |
| 2026-04-16 17:07 | 43.95320 | 15.35350 | 31089 ft | 465 kts | 127° |
| 2026-04-16 17:07 | 43.91272 | 15.42345 | 31079 ft | 464 kts | 126° |
| 2026-04-16 17:08 | 43.87229 | 15.49325 | 31076 ft | 464 kts | 127° |
| 2026-04-16 17:08 | 43.83857 | 15.55116 | 31070 ft | 464 kts | 127° |
| 2026-04-16 17:09 | 43.79136 | 15.63201 | 31066 ft | 464 kts | 127° |
| 2026-04-16 17:09 | 43.75760 | 15.68988 | 31062 ft | 466 kts | 128° |
| 2026-04-16 17:10 | 43.71653 | 15.75997 | 31052 ft | 466 kts | 128° |
| 2026-04-16 17:10 | 43.67570 | 15.82952 | 31055 ft | 466 kts | 128° |
| 2026-04-16 17:11 | 43.63506 | 15.89867 | 31056 ft | 466 kts | 128° |
| 2026-04-16 17:11 | 43.59412 | 15.96806 | 31044 ft | 466 kts | 128° |
| 2026-04-16 17:12 | 43.55306 | 16.03740 | 31031 ft | 468 kts | 128° |
| 2026-04-16 17:12 | 43.51168 | 16.10698 | 31039 ft | 469 kts | 128° |
| 2026-04-16 17:13 | 43.47025 | 16.17666 | 31027 ft | 470 kts | 128° |
| 2026-04-16 17:13 | 43.42891 | 16.24630 | 31038 ft | 468 kts | 129° |
| 2026-04-16 17:14 | 43.38756 | 16.31554 | 31033 ft | 468 kts | 129° |
| 2026-04-16 17:14 | 43.34603 | 16.38484 | 31041 ft | 469 kts | 129° |
| 2026-04-16 17:15 | 43.30457 | 16.45394 | 31036 ft | 467 kts | 129° |
| 2026-04-16 17:15 | 43.26336 | 16.52243 | 31025 ft | 468 kts | 129° |
| 2026-04-16 17:16 | 43.22178 | 16.59138 | 31050 ft | 468 kts | 129° |
| 2026-04-16 17:16 | 43.18024 | 16.66006 | 31036 ft | 467 kts | 129° |
| 2026-04-16 17:17 | 43.13878 | 16.72853 | 31039 ft | 466 kts | 130° |
| 2026-04-16 17:17 | 43.09731 | 16.79678 | 31037 ft | 466 kts | 130° |
| 2026-04-16 17:18 | 43.05592 | 16.86482 | 31043 ft | 465 kts | 130° |
| 2026-04-16 17:18 | 43.01447 | 16.93281 | 31046 ft | 465 kts | 130° |
| 2026-04-16 17:19 | 42.97326 | 17.00030 | 31047 ft | 465 kts | 130° |
| 2026-04-16 17:19 | 42.93164 | 17.06821 | 31035 ft | 465 kts | 130° |
| 2026-04-16 17:20 | 42.89007 | 17.13590 | 31041 ft | 464 kts | 130° |
| 2026-04-16 17:20 | 42.84885 | 17.20282 | 31050 ft | 464 kts | 130° |
| 2026-04-16 17:21 | 42.80738 | 17.27012 | 31046 ft | 464 kts | 130° |
| 2026-04-16 17:21 | 42.76582 | 17.33739 | 31036 ft | 464 kts | 131° |
| 2026-04-16 17:22 | 42.72415 | 17.40459 | 31050 ft | 464 kts | 131° |
| 2026-04-16 17:22 | 42.68239 | 17.47178 | 31036 ft | 465 kts | 131° |
| 2026-04-16 17:23 | 42.64062 | 17.53875 | 31048 ft | 463 kts | 131° |
| 2026-04-16 17:23 | 42.59894 | 17.60555 | 31049 ft | 463 kts | 131° |
| 2026-04-16 17:24 | 42.55753 | 17.67185 | 31041 ft | 463 kts | 131° |
| 2026-04-16 17:24 | 42.51579 | 17.73837 | 31041 ft | 463 kts | 131° |
| 2026-04-16 17:25 | 42.47404 | 17.80471 | 31049 ft | 462 kts | 131° |
| 2026-04-16 17:25 | 42.43235 | 17.87093 | 31040 ft | 462 kts | 131° |
| 2026-04-16 17:26 | 42.39071 | 17.93709 | 31031 ft | 461 kts | 131° |
| 2026-04-16 17:26 | 42.34900 | 18.00298 | 31044 ft | 460 kts | 131° |
| 2026-04-16 17:27 | 42.30730 | 18.06860 | 31033 ft | 460 kts | 131° |
| 2026-04-16 17:27 | 42.26554 | 18.13427 | 31029 ft | 461 kts | 131° |
| 2026-04-16 17:28 | 42.22383 | 18.19980 | 31036 ft | 460 kts | 131° |
| 2026-04-16 17:28 | 42.18207 | 18.26530 | 31034 ft | 460 kts | 131° |
| 2026-04-16 17:29 | 42.14058 | 18.33026 | 31022 ft | 460 kts | 131° |
| 2026-04-16 17:29 | 42.09875 | 18.39549 | 31019 ft | 458 kts | 131° |
| 2026-04-16 17:30 | 42.05701 | 18.46037 | 31035 ft | 457 kts | 131° |
| 2026-04-16 17:30 | 42.01537 | 18.52506 | 31024 ft | 457 kts | 131° |
| 2026-04-16 17:31 | 41.97398 | 18.58977 | 31019 ft | 456 kts | 130° |
| 2026-04-16 17:31 | 41.93280 | 18.65466 | 31036 ft | 457 kts | 130° |
| 2026-04-16 17:32 | 41.89226 | 18.71982 | 31021 ft | 457 kts | 129° |
| 2026-04-16 17:32 | 41.85238 | 18.78608 | 31024 ft | 454 kts | 129° |
| 2026-04-16 17:33 | 41.81257 | 18.85192 | 31029 ft | 455 kts | 129° |
| 2026-04-16 17:33 | 41.77242 | 18.91760 | 31015 ft | 455 kts | 130° |
| 2026-04-16 17:34 | 41.73220 | 18.98295 | 31010 ft | 455 kts | 130° |
| 2026-04-16 17:34 | 41.69221 | 19.04794 | 31024 ft | 455 kts | 130° |
| 2026-04-16 17:35 | 41.65195 | 19.11338 | 31010 ft | 455 kts | 130° |
| 2026-04-16 17:35 | 41.61168 | 19.17883 | 30998 ft | 456 kts | 130° |
| 2026-04-16 17:36 | 41.57130 | 19.24420 | 30998 ft | 455 kts | 130° |
| 2026-04-16 17:36 | 41.53096 | 19.30923 | 30991 ft | 454 kts | 130° |
| 2026-04-16 17:37 | 41.49070 | 19.37398 | 30997 ft | 454 kts | 130° |
| 2026-04-16 17:37 | 41.45056 | 19.43835 | 30989 ft | 455 kts | 130° |
| 2026-04-16 17:38 | 41.41012 | 19.50322 | 30978 ft | 454 kts | 129° |
| 2026-04-16 17:38 | 41.36968 | 19.56793 | 30974 ft | 454 kts | 129° |
| 2026-04-16 17:39 | 41.32917 | 19.63254 | 30973 ft | 455 kts | 129° |
| 2026-04-16 17:39 | 41.28868 | 19.69698 | 31001 ft | 453 kts | 129° |
| 2026-04-16 17:40 | 41.24832 | 19.76119 | 30988 ft | 452 kts | 129° |
| 2026-04-16 17:40 | 41.20790 | 19.82534 | 30991 ft | 453 kts | 130° |
| 2026-04-16 17:41 | 41.16752 | 19.88923 | 30984 ft | 454 kts | 130° |
| 2026-04-16 17:41 | 41.12684 | 19.95345 | 30996 ft | 454 kts | 130° |
| 2026-04-16 17:42 | 41.08620 | 20.01753 | 30988 ft | 454 kts | 130° |
| 2026-04-16 17:42 | 41.04543 | 20.08153 | 31008 ft | 454 kts | 130° |
| 2026-04-16 17:43 | 41.00461 | 20.14553 | 31004 ft | 454 kts | 130° |
| 2026-04-16 17:43 | 40.96381 | 20.20953 | 31018 ft | 454 kts | 131° |
| 2026-04-16 17:44 | 40.92332 | 20.27279 | 31022 ft | 452 kts | 131° |
| 2026-04-16 17:44 | 40.88239 | 20.33662 | 31027 ft | 452 kts | 131° |
| 2026-04-16 17:45 | 40.84179 | 20.39979 | 31045 ft | 453 kts | 131° |
| 2026-04-16 17:45 | 40.80091 | 20.46317 | 31044 ft | 452 kts | 131° |
| 2026-04-16 17:46 | 40.75995 | 20.52670 | 31052 ft | 456 kts | 131° |
| 2026-04-16 17:46 | 40.71864 | 20.59064 | 31054 ft | 457 kts | 131° |
| 2026-04-16 17:47 | 40.67733 | 20.65428 | 31080 ft | 457 kts | 131° |
| 2026-04-16 17:47 | 40.63606 | 20.71781 | 31068 ft | 456 kts | 131° |
| 2026-04-16 17:48 | 40.59479 | 20.78134 | 31089 ft | 457 kts | 131° |
| 2026-04-16 17:48 | 40.55347 | 20.84472 | 31073 ft | 457 kts | 131° |
| 2026-04-16 17:49 | 40.51205 | 20.90814 | 31075 ft | 457 kts | 131° |
| 2026-04-16 17:49 | 40.47088 | 20.97108 | 31094 ft | 457 kts | 131° |
| 2026-04-16 17:50 | 40.43094 | 21.03599 | 31096 ft | 456 kts | 129° |
| 2026-04-16 17:50 | 40.39208 | 21.10167 | 31104 ft | 456 kts | 129° |
| 2026-04-16 17:51 | 40.35284 | 21.16707 | 31106 ft | 455 kts | 129° |
| 2026-04-16 17:51 | 40.31326 | 21.23186 | 31104 ft | 456 kts | 130° |
| 2026-04-16 17:52 | 40.27351 | 21.29662 | 31105 ft | 455 kts | 130° |
| 2026-04-16 17:52 | 40.23405 | 21.36086 | 31107 ft | 455 kts | 130° |
| 2026-04-16 17:53 | 40.19426 | 21.42552 | 31110 ft | 455 kts | 130° |
| 2026-04-16 17:53 | 40.15457 | 21.48999 | 31109 ft | 455 kts | 130° |
| 2026-04-16 17:54 | 40.11493 | 21.55439 | 31100 ft | 454 kts | 129° |
| 2026-04-16 17:54 | 40.07533 | 21.61857 | 31114 ft | 453 kts | 130° |
| 2026-04-16 17:55 | 40.03573 | 21.68262 | 31101 ft | 453 kts | 130° |
| 2026-04-16 17:55 | 39.99602 | 21.74657 | 31100 ft | 453 kts | 130° |
| 2026-04-16 17:56 | 39.95626 | 21.81038 | 31104 ft | 452 kts | 130° |
| 2026-04-16 17:56 | 39.90374 | 21.89476 | 31097 ft | 449 kts | 130° |
| 2026-04-16 17:57 | 39.86433 | 21.95795 | 31093 ft | 449 kts | 130° |
| 2026-04-16 17:57 | 39.82481 | 22.02097 | 31084 ft | 449 kts | 129° |
| 2026-04-16 17:58 | 39.78534 | 22.08390 | 31073 ft | 449 kts | 129° |
| 2026-04-16 17:58 | 39.74585 | 22.14684 | 31083 ft | 448 kts | 129° |
| 2026-04-16 17:59 | 39.70644 | 22.20949 | 31071 ft | 447 kts | 129° |
| 2026-04-16 17:59 | 39.66725 | 22.27163 | 31078 ft | 447 kts | 129° |
| 2026-04-16 18:00 | 39.62778 | 22.33400 | 31069 ft | 447 kts | 129° |
| 2026-04-16 18:00 | 39.58825 | 22.39636 | 31072 ft | 447 kts | 129° |
| 2026-04-16 18:01 | 39.54870 | 22.45870 | 31066 ft | 447 kts | 130° |
| 2026-04-16 18:01 | 39.50898 | 22.52116 | 31074 ft | 449 kts | 130° |
| 2026-04-16 18:02 | 39.46915 | 22.58371 | 31063 ft | 449 kts | 130° |
| 2026-04-16 18:02 | 39.42937 | 22.64607 | 31064 ft | 449 kts | 130° |
| 2026-04-16 18:03 | 39.38973 | 22.70792 | 31078 ft | 449 kts | 130° |
| 2026-04-16 18:03 | 39.34985 | 22.77007 | 31071 ft | 449 kts | 130° |
| 2026-04-16 18:04 | 39.31003 | 22.83213 | 31084 ft | 447 kts | 130° |
| 2026-04-16 18:04 | 39.27027 | 22.89390 | 31082 ft | 447 kts | 130° |
| 2026-04-16 18:05 | 39.23053 | 22.95555 | 31081 ft | 447 kts | 130° |
| 2026-04-16 18:05 | 39.19098 | 23.01682 | 31074 ft | 443 kts | 130° |
| 2026-04-16 18:06 | 39.15162 | 23.07772 | 31081 ft | 442 kts | 130° |
| 2026-04-16 18:06 | 39.11222 | 23.13847 | 31072 ft | 442 kts | 130° |
| 2026-04-16 18:07 | 39.07278 | 23.19910 | 31069 ft | 442 kts | 130° |
| 2026-04-16 18:07 | 39.03356 | 23.25932 | 31068 ft | 441 kts | 130° |
| 2026-04-16 18:08 | 38.99410 | 23.31984 | 31056 ft | 441 kts | 130° |
| 2026-04-16 18:08 | 38.95463 | 23.38034 | 31046 ft | 441 kts | 130° |
| 2026-04-16 18:09 | 38.91509 | 23.44071 | 31064 ft | 442 kts | 131° |
| 2026-04-16 18:09 | 38.87554 | 23.50095 | 31052 ft | 439 kts | 130° |
| 2026-04-16 18:10 | 38.83614 | 23.56098 | 31044 ft | 440 kts | 131° |
| 2026-04-16 18:10 | 38.79658 | 23.62101 | 31054 ft | 440 kts | 131° |
| 2026-04-16 18:11 | 38.75698 | 23.68096 | 31055 ft | 438 kts | 131° |
| 2026-04-16 18:11 | 38.71748 | 23.74065 | 31043 ft | 441 kts | 131° |
| 2026-04-16 18:12 | 38.70430 | 23.76056 | 31048 ft | 441 kts | 131° |